createdAt,value
2022-11-15T00:05:41.476Z,96974.03
2022-11-15T00:11:20.491Z,96963.16
2022-11-15T00:17:00.153Z,96959.84
2022-11-15T00:22:39.476Z,96950.09
2022-11-15T00:28:18.856Z,96959.50
2022-11-15T00:33:58.186Z,96952.88
2022-11-15T00:39:37.466Z,96947.75
2022-11-15T00:45:16.903Z,96943.19
2022-11-15T00:50:56.044Z,96946.47
2022-11-15T00:56:35.150Z,96938.41
2022-11-15T01:02:14.545Z,96950.50
2022-11-15T01:07:54.908Z,96939.06
2022-11-15T01:13:34.726Z,96927.84
2022-11-15T01:19:13.966Z,96922.28
2022-11-15T01:24:53.271Z,96924.38
2022-11-15T01:30:32.674Z,96917.47
2022-11-15T01:36:16.879Z,96921.78
2022-11-15T01:41:56.329Z,96918.84
2022-11-15T01:47:41.316Z,96914.34
2022-11-15T01:53:22.540Z,96898.34
2022-11-15T01:59:03.674Z,96889.38
2022-11-15T02:04:44.197Z,96891.28
2022-11-15T02:10:24.578Z,96897.28
2022-11-15T02:16:14.580Z,96888.94
2022-11-15T02:22:06.212Z,96883.59
2022-11-15T02:27:57.687Z,96893.84
2022-11-15T02:33:43.059Z,96889.50
2022-11-15T02:39:22.307Z,96886.50
2022-11-15T02:45:05.622Z,96886.59
2022-11-15T02:50:46.252Z,96888.56
2022-11-15T02:56:25.695Z,96871.41
2022-11-15T03:02:17.611Z,96865.91
2022-11-15T03:08:15.559Z,96869.75
2022-11-15T03:13:59.961Z,96861.06
2022-11-15T03:19:46.756Z,96852.00
2022-11-15T03:25:27.969Z,96860.25
2022-11-15T03:31:28.288Z,96855.50
2022-11-15T03:37:08.239Z,96847.44
2022-11-15T03:42:51.087Z,96846.50
2022-11-15T03:48:38.158Z,96841.72
2022-11-15T03:54:17.789Z,96844.22
2022-11-15T03:59:57.215Z,96842.06
2022-11-15T04:05:36.348Z,96835.13
2022-11-15T04:11:15.643Z,96827.06
2022-11-15T04:16:54.731Z,96834.59
2022-11-15T04:22:52.498Z,96843.69
2022-11-15T04:28:32.210Z,96834.44
2022-11-15T04:34:11.468Z,96830.94
2022-11-15T04:39:50.646Z,96828.66
2022-11-15T04:45:29.912Z,96813.25
2022-11-15T04:51:09.299Z,96820.16
2022-11-15T04:56:48.804Z,96813.09
2022-11-15T05:02:51.051Z,96820.41
2022-11-15T05:08:30.550Z,96816.34
2022-11-15T05:14:09.761Z,96821.50
2022-11-15T05:19:49.249Z,96823.50
2022-11-15T05:25:28.549Z,96821.41
2022-11-15T05:31:17.266Z,96815.97
2022-11-15T05:36:56.862Z,96808.06
2022-11-15T05:42:36.177Z,96811.78
2022-11-15T05:48:15.931Z,96807.41
2022-11-15T05:53:57.361Z,96805.72
2022-11-15T05:59:36.844Z,96793.56
2022-11-15T06:05:16.197Z,96797.75
2022-11-15T06:10:55.502Z,96787.00
2022-11-15T06:16:34.638Z,96786.50
2022-11-15T06:22:14.228Z,96788.88
2022-11-15T06:27:53.932Z,96778.44
2022-11-15T06:33:34.154Z,96804.03
2022-11-15T06:39:13.793Z,96803.66
2022-11-15T06:44:53.341Z,96815.28
2022-11-15T06:50:32.390Z,96814.72
2022-11-15T06:56:11.502Z,96822.31
2022-11-15T07:01:51.118Z,96815.38
2022-11-15T07:07:30.224Z,96818.13
2022-11-15T07:13:10.037Z,96817.69
2022-11-15T07:18:49.726Z,96814.50
2022-11-15T07:24:29.270Z,96814.53
2022-11-15T07:30:09.145Z,96816.56
2022-11-15T07:35:51.256Z,96812.25
2022-11-15T07:41:30.881Z,96821.56
2022-11-15T07:47:10.113Z,96810.41
2022-11-15T07:52:54.340Z,96806.91
2022-11-15T07:58:33.748Z,96790.25
2022-11-15T08:04:12.958Z,96785.16
2022-11-15T08:09:52.364Z,96795.47
2022-11-15T08:15:32.294Z,96791.34
2022-11-15T08:21:18.185Z,96780.13
2022-11-15T08:26:57.923Z,96781.34
2022-11-15T08:32:37.536Z,96777.78
2022-11-15T08:38:17.030Z,96771.81
2022-11-15T08:43:56.732Z,96774.09
2022-11-15T08:49:36.056Z,96771.72
2022-11-15T08:55:17.532Z,96765.84
2022-11-15T09:00:57.433Z,96772.47
2022-11-15T09:06:39.738Z,96770.41
2022-11-15T09:12:22.771Z,96779.19
2022-11-15T09:18:02.326Z,96771.00
2022-11-15T09:23:41.767Z,96769.59
2022-11-15T09:29:20.828Z,96773.72
2022-11-15T09:35:00.398Z,96776.63
2022-11-15T09:40:39.990Z,96761.63
2022-11-15T09:46:19.069Z,96760.41
2022-11-15T09:51:59.141Z,96763.59
2022-11-15T09:57:22.611Z,96749.66
2022-11-15T10:03:03.736Z,96751.41
2022-11-15T10:08:33.775Z,96746.13
2022-11-15T10:13:56.383Z,96737.75
2022-11-15T10:19:20.198Z,96721.84
2022-11-15T10:24:42.954Z,96718.88
2022-11-15T10:30:05.133Z,96711.66
2022-11-15T10:35:27.677Z,96718.13
2022-11-15T10:40:48.363Z,96706.72
2022-11-15T10:46:45.072Z,96699.69
2022-11-15T10:52:05.473Z,96703.19
2022-11-15T10:57:27.930Z,96702.91
2022-11-15T11:02:57.975Z,96694.09
2022-11-15T11:08:23.945Z,96694.75
2022-11-15T11:13:44.427Z,96672.38
2022-11-15T11:19:19.486Z,96660.81
2022-11-15T11:24:54.098Z,96651.34
2022-11-15T11:30:23.165Z,96646.50
2022-11-15T11:35:43.929Z,96649.84
2022-11-15T11:41:04.679Z,96651.69
2022-11-15T11:46:25.692Z,96639.94
2022-11-15T11:51:49.573Z,96631.03
2022-11-15T11:57:33.722Z,96617.84
2022-11-15T12:03:03.758Z,96615.63
2022-11-15T12:08:42.145Z,96614.84
2022-11-15T12:14:04.907Z,96605.84
2022-11-15T12:19:26.094Z,96591.72
2022-11-15T12:24:52.933Z,96584.47
2022-11-15T12:30:15.000Z,96580.22
2022-11-15T12:35:39.974Z,96574.38
2022-11-15T12:41:14.619Z,96568.19
2022-11-15T12:46:55.774Z,96555.88
2022-11-15T12:52:16.845Z,96556.47
2022-11-15T12:57:42.515Z,96542.91
2022-11-15T13:03:20.421Z,96539.03
2022-11-15T13:08:44.903Z,96532.72
2022-11-15T13:14:25.563Z,96521.22
2022-11-15T13:20:01.548Z,96535.31
2022-11-15T13:25:22.348Z,96524.59
2022-11-15T13:30:53.307Z,96517.88
2022-11-15T13:36:16.616Z,96519.34
2022-11-15T13:41:45.492Z,96513.03
2022-11-15T13:47:16.030Z,96499.56
2022-11-15T13:52:38.141Z,96497.00
2022-11-15T13:58:01.363Z,96503.41
2022-11-15T14:03:27.372Z,96499.38
2022-11-15T14:09:06.937Z,96491.75
2022-11-15T14:14:29.833Z,96478.13
2022-11-15T14:19:51.202Z,96471.78
2022-11-15T14:25:14.956Z,96473.31
2022-11-15T14:30:35.699Z,96464.13
2022-11-15T14:35:58.212Z,96457.59
2022-11-15T14:41:21.024Z,96450.78
2022-11-15T14:46:42.005Z,96454.41
2022-11-15T14:52:03.002Z,96444.44
2022-11-15T14:57:23.990Z,96443.25
2022-11-15T15:02:45.938Z,96430.22
2022-11-15T15:08:07.279Z,96435.59
2022-11-15T15:13:29.751Z,96426.78
2022-11-15T15:18:50.810Z,96420.31
2022-11-15T15:24:15.993Z,96430.28
2022-11-15T15:29:37.087Z,96428.06
2022-11-15T15:34:57.533Z,96429.03
2022-11-15T15:40:21.148Z,96420.09
2022-11-15T15:45:42.434Z,96418.44
2022-11-15T15:51:09.121Z,96417.88
2022-11-15T15:56:34.038Z,96414.56
2022-11-15T16:01:54.975Z,96411.75
2022-11-15T16:07:24.602Z,96408.81
2022-11-15T16:12:45.221Z,96411.66
2022-11-15T16:18:08.715Z,96424.69
2022-11-15T16:23:29.401Z,96412.44
2022-11-15T16:28:50.294Z,96409.63
2022-11-15T16:34:10.876Z,96408.56
2022-11-15T16:39:32.409Z,96402.69
2022-11-15T16:44:53.144Z,96406.69
2022-11-15T16:50:28.102Z,96391.91
2022-11-15T16:55:48.970Z,96389.66
2022-11-15T17:01:16.715Z,96378.31
2022-11-15T17:06:37.150Z,96367.94
2022-11-15T17:11:57.958Z,96372.69
2022-11-15T17:17:18.825Z,96383.06
2022-11-15T17:22:39.624Z,96374.44
2022-11-15T17:28:00.413Z,96370.78
2022-11-15T17:33:21.402Z,96380.56
2022-11-15T17:38:42.596Z,96375.19
2022-11-15T17:44:03.770Z,96375.63
2022-11-15T17:49:24.742Z,96369.16
2022-11-15T17:54:45.591Z,96362.28
2022-11-15T18:00:07.329Z,96369.34
2022-11-15T18:05:27.875Z,96345.22
2022-11-15T18:10:48.791Z,96345.63
2022-11-15T18:16:14.424Z,96339.63
2022-11-15T18:21:37.633Z,96336.53
2022-11-15T18:26:59.417Z,96328.81
2022-11-15T18:32:19.916Z,96333.03
2022-11-15T18:37:41.345Z,96338.22
2022-11-15T18:43:02.223Z,96338.81
2022-11-15T18:48:23.395Z,96334.50
2022-11-15T18:53:44.484Z,96328.97
2022-11-15T18:59:05.652Z,96321.81
2022-11-15T19:04:26.271Z,96303.59
2022-11-15T19:09:46.791Z,96312.91
2022-11-15T19:15:10.249Z,96311.97
2022-11-15T19:20:31.152Z,96305.72
2022-11-15T19:25:59.533Z,96282.41
2022-11-15T19:31:20.794Z,96279.81
2022-11-15T19:36:42.426Z,96281.38
2022-11-15T19:42:03.109Z,96267.50
2022-11-15T19:47:26.858Z,96271.13
2022-11-15T19:52:47.475Z,96263.88
2022-11-15T19:58:08.359Z,96256.44
2022-11-15T20:03:29.786Z,96258.31
2022-11-15T20:08:52.196Z,96269.63
2022-11-15T20:14:13.454Z,96288.97
2022-11-15T20:19:34.004Z,96281.53
2022-11-15T20:24:54.823Z,96270.72
2022-11-15T20:30:15.608Z,96268.44
2022-11-15T20:35:36.606Z,96262.94
2022-11-15T20:41:00.162Z,96252.34
2022-11-15T20:46:22.447Z,96262.25
2022-11-15T20:51:43.946Z,96253.16
2022-11-15T20:57:05.038Z,96246.22
2022-11-15T21:02:26.332Z,96246.53
2022-11-15T21:07:47.734Z,96242.38
2022-11-15T21:13:08.743Z,96238.94
2022-11-15T21:18:30.524Z,96231.25
2022-11-15T21:23:51.505Z,96228.78
2022-11-15T21:29:17.051Z,96235.41
2022-11-15T21:34:38.211Z,96230.06
2022-11-15T21:39:58.870Z,96217.81
2022-11-15T21:45:19.640Z,96220.41
2022-11-15T21:50:41.742Z,96200.09
2022-11-15T21:56:02.683Z,96193.25
2022-11-15T22:01:42.852Z,96180.22
2022-11-15T22:07:03.396Z,96164.38
2022-11-15T22:12:29.437Z,96156.84
2022-11-15T22:17:59.529Z,96150.91
2022-11-15T22:23:20.402Z,96152.44
2022-11-15T22:28:41.239Z,96149.28
2022-11-15T22:34:02.094Z,96148.31
2022-11-15T22:39:23.025Z,96148.31
2022-11-15T22:44:43.619Z,96148.91
2022-11-15T22:50:06.523Z,96141.50
2022-11-15T22:55:27.322Z,96130.66
2022-11-15T23:00:49.086Z,96120.75
2022-11-15T23:06:09.832Z,96114.56
2022-11-15T23:11:49.422Z,96106.34
2022-11-15T23:17:09.913Z,96083.16
2022-11-15T23:22:49.032Z,96085.19
2022-11-15T23:28:09.743Z,96084.84
2022-11-15T23:33:49.242Z,96072.16
2022-11-15T23:39:10.225Z,96067.00
2022-11-15T23:44:31.312Z,96060.91
2022-11-15T23:49:52.364Z,96063.00
2022-11-15T23:55:13.108Z,96059.00
